Portada
Imágenes satélite Pronóstico 10 díasClimaPredicción Marítima Ciclones Rayo AeropuertosFAQ Noticias Acerca
El tiempo : Europa África América del Norte América del Sur Asia Australia-Oceanía Otros
Idiomas Contacto

Santa Cruz de la Sierra, Bolivia

Aeropuerto El Trompillo

latitud: 17-48S, longitud: 063-11W, altitud: 418 m


METAR: SLET 292300Z 33008KT 9999 NSC 27/19 Q1012
TAF: SLET 292230Z 3000/3024 33008KT 9000 NSC TX33/3019Z TN20/3010Z BECMG 3015/3018 33015G25KT FEW020

Hora: 21:28 (01:28 UTC)

Observación

El informe se hizo hace 2 horas y 28 minutos, a las 23:00 UTC
Viento 8 kt del norte-noroeste
Temperatura 27°C
Humedad 62%
Presión 1012 hPa
Visibilidad 10 km o más

Cambiar las unidades

Pronóstico

El informe se hizo hace 2 horas y 58 minutos, a las 22:30 UTC
Pronóstico válido del 30 a las 00 UTC al 30 a las 24 UTC
Viento 8 kt del norte-noroeste
Visibilidad: 9000 m
Evolucionando progresivamente
del 30 a las 15 UTC al 30 a las 18 UTC
Viento 15 kt del norte-noroeste con ráfagas de 25 kt
Escasas nubes a una altura de 2000 ft
La información que se ofrece en estas páginas está sujeta a una cláusula de exención de responsabilidad
El tiempo : Europa África América del Norte América del Sur Asia Australia-Oceanía Otros
Imágenes satélite Pronóstico 10 díasClimaPredicción Marítima Ciclones Rayo AeropuertosFAQ Idiomas Contacto Noticias Acerca